createdAt,value
2018-03-03T00:00:35.063Z,28.87
2018-03-03T00:03:01.069Z,29.17
2018-03-03T00:05:27.056Z,30.77
2018-03-03T00:07:53.033Z,29.30
2018-03-03T00:10:19.020Z,28.40
2018-03-03T00:12:44.981Z,27.53
2018-03-03T00:15:10.953Z,29.90
2018-03-03T00:17:37.655Z,30.43
2018-03-03T00:20:03.713Z,27.00
2018-03-03T00:22:39.724Z,30.17
2018-03-03T00:25:06.445Z,28.47
2018-03-03T00:27:32.476Z,28.70
2018-03-03T00:29:58.522Z,28.87
2018-03-03T00:32:24.485Z,28.67
2018-03-03T00:34:51.204Z,28.20
2018-03-03T00:37:17.177Z,28.67
2018-03-03T00:39:43.900Z,30.73
2018-03-03T00:42:09.868Z,30.07
2018-03-03T00:44:36.573Z,30.23
2018-03-03T00:47:02.552Z,25.80
2018-03-03T00:49:35.342Z,28.03
2018-03-03T00:52:02.159Z,24.23
2018-03-03T00:54:28.271Z,28.23
2018-03-03T00:56:54.281Z,25.70
2018-03-03T00:59:21.024Z,21.87
2018-03-03T01:01:47.752Z,27.17
2018-03-03T01:04:13.750Z,29.67
2018-03-03T01:06:39.747Z,25.27
2018-03-03T01:09:06.662Z,25.97
2018-03-03T01:11:32.719Z,26.10
2018-03-03T01:13:59.099Z,26.63
2018-03-03T01:16:25.130Z,30.17
2018-03-03T01:18:51.847Z,30.03
2018-03-03T01:21:17.845Z,27.57
2018-03-03T01:23:43.836Z,28.80
2018-03-03T01:26:09.837Z,29.53
2018-03-03T01:28:35.909Z,29.83
2018-03-03T01:31:01.997Z,26.13
2018-03-03T01:33:28.098Z,30.60
2018-03-03T01:35:54.126Z,27.63
2018-03-03T01:38:20.164Z,25.20
2018-03-03T01:40:46.160Z,26.83
2018-03-03T01:43:12.150Z,29.80
2018-03-03T01:45:38.922Z,27.87
2018-03-03T01:48:04.960Z,28.77
2018-03-03T01:50:31.009Z,27.73
2018-03-03T01:52:57.002Z,30.43
2018-03-03T01:55:23.727Z,27.20
2018-03-03T01:57:49.768Z,28.13
2018-03-03T02:00:15.748Z,26.67
2018-03-03T02:02:41.751Z,26.30
2018-03-03T02:05:07.756Z,27.23
2018-03-03T02:07:33.831Z,28.97
2018-03-03T02:09:59.948Z,27.93
2018-03-03T02:12:25.968Z,26.50
2018-03-03T02:14:51.949Z,27.47
2018-03-03T02:17:18.682Z,22.47
2018-03-03T02:19:44.651Z,30.33
2018-03-03T02:22:11.394Z,30.63
2018-03-03T02:24:38.129Z,30.60
2018-03-03T02:27:04.204Z,29.37
2018-03-03T02:29:30.272Z,30.10
2018-03-03T02:31:56.285Z,32.60
2018-03-03T02:34:22.243Z,29.53
2018-03-03T02:36:48.244Z,32.27
2018-03-03T02:39:14.208Z,32.17
2018-03-03T02:41:40.202Z,29.10
2018-03-03T02:44:06.969Z,31.90
2018-03-03T02:46:33.005Z,28.40
2018-03-03T02:48:59.028Z,30.50
2018-03-03T02:51:25.760Z,31.73
2018-03-03T02:53:51.745Z,32.63
2018-03-03T02:56:17.732Z,30.63
2018-03-03T02:58:45.210Z,32.03
2018-03-03T03:01:11.201Z,28.93
2018-03-03T03:03:37.240Z,33.00
2018-03-03T03:06:03.247Z,27.90
2018-03-03T03:08:29.316Z,30.60
2018-03-03T03:10:55.314Z,31.50
2018-03-03T03:13:22.048Z,29.13
2018-03-03T03:15:48.074Z,30.83
2018-03-03T03:18:14.097Z,27.37
2018-03-03T03:20:40.086Z,28.30
2018-03-03T03:23:06.314Z,28.53
2018-03-03T03:25:32.363Z,29.27
2018-03-03T03:27:58.456Z,27.27
2018-03-03T03:30:24.495Z,30.63
2018-03-03T03:32:50.476Z,31.13
2018-03-03T03:35:16.464Z,30.10
2018-03-03T03:37:42.483Z,29.60
2018-03-03T03:40:08.496Z,27.20
2018-03-03T03:42:34.531Z,27.37
2018-03-03T03:45:00.581Z,26.57
2018-03-03T03:47:26.552Z,25.07
2018-03-03T03:49:52.563Z,29.57
2018-03-03T03:52:18.546Z,27.77
2018-03-03T03:54:45.280Z,24.93
2018-03-03T03:57:11.299Z,25.70
2018-03-03T03:59:37.367Z,29.77
2018-03-03T04:02:04.172Z,27.33
2018-03-03T04:04:30.224Z,29.90
2018-03-03T04:06:56.207Z,28.50
2018-03-03T04:09:22.188Z,30.33
2018-03-03T04:11:48.164Z,27.40
2018-03-03T04:14:14.888Z,27.93
2018-03-03T04:16:40.885Z,27.33
2018-03-03T04:19:06.960Z,25.27
2018-03-03T04:21:33.189Z,29.00
2018-03-03T04:23:59.241Z,27.87
2018-03-03T04:26:25.302Z,27.00
2018-03-03T04:28:52.045Z,26.90
2018-03-03T04:31:18.057Z,27.53
2018-03-03T04:33:44.089Z,29.37
2018-03-03T04:36:10.204Z,27.50
2018-03-03T04:38:36.298Z,31.70
2018-03-03T04:41:03.150Z,28.70
2018-03-03T04:43:30.006Z,29.30
2018-03-03T04:45:56.756Z,27.30
2018-03-03T04:48:22.786Z,28.60
2018-03-03T04:50:49.530Z,30.97
2018-03-03T04:53:15.554Z,28.73
2018-03-03T04:55:41.575Z,29.53
2018-03-03T04:58:07.612Z,29.57
2018-03-03T05:00:34.541Z,26.80
2018-03-03T05:03:06.804Z,28.83
2018-03-03T05:05:39.907Z,29.30
2018-03-03T05:08:19.059Z,29.87
2018-03-03T05:10:45.781Z,27.73
2018-03-03T05:13:17.784Z,28.87
2018-03-03T05:15:46.478Z,28.07
2018-03-03T05:18:12.452Z,24.70
2018-03-03T05:23:50.542Z,29.50
2018-03-03T05:29:23.041Z,27.67
2018-03-03T05:31:55.412Z,28.40
2018-03-03T05:34:25.193Z,30.10
2018-03-03T05:36:57.221Z,29.13
2018-03-03T05:39:29.269Z,28.43
2018-03-03T05:45:03.802Z,27.97
2018-03-03T05:47:36.151Z,25.70
2018-03-03T05:50:08.427Z,27.93
2018-03-03T05:52:35.288Z,28.87
2018-03-03T05:55:07.576Z,31.60
2018-03-03T06:00:43.227Z,30.07
2018-03-03T06:03:19.983Z,27.33
2018-03-03T06:05:48.841Z,27.93
2018-03-03T06:08:20.475Z,29.20
2018-03-03T06:10:46.471Z,31.70
2018-03-03T06:13:12.484Z,26.87
2018-03-03T06:15:39.214Z,29.20
2018-03-03T06:18:05.246Z,31.63
2018-03-03T06:20:31.317Z,29.03
2018-03-03T06:22:58.114Z,31.00
2018-03-03T06:25:24.113Z,28.20
2018-03-03T06:27:50.135Z,28.27
2018-03-03T06:30:16.851Z,30.20
2018-03-03T06:32:42.844Z,31.03
2018-03-03T06:35:08.845Z,29.93
2018-03-03T06:37:35.620Z,32.83
2018-03-03T06:40:02.412Z,29.37
2018-03-03T06:42:28.410Z,29.53
2018-03-03T06:44:54.416Z,29.03
2018-03-03T06:47:20.431Z,29.33
2018-03-03T06:49:46.417Z,26.10
2018-03-03T06:52:12.363Z,29.87
2018-03-03T06:54:38.331Z,30.47
2018-03-03T06:57:05.030Z,31.17
2018-03-03T06:59:31.073Z,29.60
2018-03-03T07:01:57.052Z,28.23
2018-03-03T07:04:23.020Z,30.17
2018-03-03T07:06:48.971Z,26.70
2018-03-03T07:09:15.001Z,28.57
2018-03-03T07:11:40.988Z,30.80
2018-03-03T07:14:07.718Z,28.60
2018-03-03T07:16:33.713Z,31.00
2018-03-03T07:18:59.730Z,30.67
2018-03-03T07:21:25.692Z,28.53
2018-03-03T07:23:51.930Z,25.13
2018-03-03T07:26:17.897Z,30.37
2018-03-03T07:28:43.915Z,32.20
2018-03-03T07:31:09.842Z,28.10
2018-03-03T07:33:35.827Z,30.47
2018-03-03T07:36:02.580Z,29.13
2018-03-03T07:38:29.363Z,33.23
2018-03-03T07:40:55.345Z,31.20
2018-03-03T07:43:21.306Z,31.03
2018-03-03T07:45:48.037Z,29.70
2018-03-03T07:48:14.011Z,30.97
2018-03-03T07:50:39.984Z,32.87
2018-03-03T07:53:05.941Z,29.50
2018-03-03T07:55:31.997Z,29.43
2018-03-03T07:57:58.821Z,30.63
2018-03-03T08:00:24.783Z,29.40
2018-03-03T08:02:51.492Z,29.70
2018-03-03T08:05:17.464Z,27.57
2018-03-03T08:07:43.442Z,28.57
2018-03-03T08:10:09.448Z,31.20
2018-03-03T08:12:36.148Z,27.30
2018-03-03T08:15:02.372Z,28.93
2018-03-03T08:17:28.365Z,30.93
2018-03-03T08:19:55.065Z,30.30
2018-03-03T08:22:21.049Z,27.97
2018-03-03T08:24:47.039Z,28.80
2018-03-03T08:27:12.991Z,27.43
2018-03-03T08:29:38.999Z,28.93
2018-03-03T08:32:04.994Z,27.33
2018-03-03T08:34:31.717Z,32.67
2018-03-03T08:36:57.769Z,28.40
2018-03-03T08:39:23.744Z,30.63
2018-03-03T08:41:49.713Z,30.23
2018-03-03T08:44:15.670Z,28.33
2018-03-03T08:46:41.644Z,27.17
2018-03-03T08:49:07.650Z,26.77
2018-03-03T08:51:33.642Z,28.93
2018-03-03T08:53:59.657Z,29.40
2018-03-03T08:56:25.645Z,28.80
2018-03-03T08:58:51.613Z,27.43
2018-03-03T09:01:18.317Z,26.13
2018-03-03T09:03:44.284Z,31.63
2018-03-03T09:06:10.242Z,31.63
2018-03-03T09:08:36.234Z,30.43
2018-03-03T09:11:02.254Z,29.57
2018-03-03T09:13:28.278Z,30.90
2018-03-03T09:15:54.241Z,31.07
2018-03-03T09:18:20.205Z,29.97
2018-03-03T09:20:46.909Z,31.20
2018-03-03T09:23:12.868Z,29.67
2018-03-03T09:25:38.820Z,28.27
2018-03-03T09:28:04.798Z,28.67
2018-03-03T09:30:30.770Z,30.67
2018-03-03T09:32:56.728Z,27.33
2018-03-03T09:35:22.681Z,30.90
2018-03-03T09:37:48.652Z,32.33
2018-03-03T09:40:14.615Z,27.30
2018-03-03T09:42:40.602Z,31.03
2018-03-03T09:45:06.579Z,30.43
2018-03-03T09:47:32.563Z,28.87
2018-03-03T09:49:58.582Z,30.67
2018-03-03T09:52:25.276Z,30.10
2018-03-03T09:54:51.253Z,28.47
2018-03-03T09:57:17.238Z,30.97
2018-03-03T09:59:43.205Z,31.00
2018-03-03T10:02:09.169Z,30.90
2018-03-03T10:04:35.887Z,27.60
2018-03-03T10:07:01.888Z,29.83
2018-03-03T10:09:28.065Z,29.53
2018-03-03T10:11:54.024Z,27.10
2018-03-03T10:14:20.025Z,29.37
2018-03-03T10:16:45.979Z,28.70
2018-03-03T10:19:11.938Z,32.67
2018-03-03T10:21:37.889Z,28.43
2018-03-03T10:24:04.606Z,30.67
2018-03-03T10:26:30.580Z,30.23
2018-03-03T10:28:56.572Z,29.10
2018-03-03T10:31:22.538Z,29.93
2018-03-03T10:33:49.238Z,28.90
2018-03-03T10:36:15.230Z,29.57
2018-03-03T10:38:41.928Z,27.03
2018-03-03T10:41:07.906Z,29.70
2018-03-03T10:43:34.634Z,28.67
2018-03-03T10:46:00.657Z,25.63
2018-03-03T10:48:26.631Z,29.07
2018-03-03T10:50:53.329Z,31.17
2018-03-03T10:53:19.283Z,26.57
2018-03-03T10:55:45.239Z,30.27
2018-03-03T10:58:11.200Z,26.60
2018-03-03T11:00:37.925Z,24.87
2018-03-03T11:03:03.909Z,29.00
2018-03-03T11:05:29.903Z,28.33
2018-03-03T11:07:55.965Z,28.17
2018-03-03T11:10:22.202Z,28.97
2018-03-03T11:12:48.890Z,26.37
2018-03-03T11:15:14.870Z,29.27
2018-03-03T11:17:40.834Z,25.50
2018-03-03T11:20:06.793Z,28.37
2018-03-03T11:22:32.930Z,26.97
2018-03-03T11:24:58.978Z,30.70
2018-03-03T11:27:24.948Z,25.87
2018-03-03T11:29:50.907Z,26.90
2018-03-03T11:32:17.607Z,28.60
2018-03-03T11:34:43.561Z,28.33
2018-03-03T11:37:09.540Z,29.50
2018-03-03T11:39:35.508Z,26.47
2018-03-03T11:42:01.523Z,24.83
2018-03-03T11:44:27.488Z,22.13
2018-03-03T11:46:53.461Z,22.80
2018-03-03T11:49:20.174Z,27.17
2018-03-03T11:51:46.137Z,26.80
2018-03-03T11:54:12.097Z,23.00
2018-03-03T11:56:38.796Z,21.57
2018-03-03T11:59:04.816Z,23.17
2018-03-03T12:01:37.733Z,23.77
2018-03-03T12:04:03.765Z,25.30
2018-03-03T12:06:29.783Z,22.63
2018-03-03T12:08:55.757Z,18.87
2018-03-03T12:11:21.726Z,21.93
2018-03-03T12:13:47.701Z,23.53
2018-03-03T12:16:13.657Z,26.00
2018-03-03T12:18:39.615Z,22.37
2018-03-03T12:21:06.334Z,25.93
2018-03-03T12:23:32.349Z,23.13
2018-03-03T12:25:58.473Z,28.67
2018-03-03T12:28:24.439Z,28.73
2018-03-03T12:30:50.393Z,24.37
2018-03-03T12:33:16.365Z,23.33
2018-03-03T12:35:42.395Z,22.97
2018-03-03T12:38:08.319Z,25.00
2018-03-03T12:40:35.024Z,23.43
2018-03-03T12:43:01.053Z,23.17
2018-03-03T12:45:27.021Z,23.00
2018-03-03T12:47:52.967Z,23.47
2018-03-03T12:50:18.933Z,22.77
2018-03-03T12:52:44.940Z,22.13
2018-03-03T12:55:10.913Z,21.57
2018-03-03T12:57:36.939Z,24.70
2018-03-03T13:00:02.992Z,24.23
2018-03-03T13:02:28.994Z,24.47
2018-03-03T13:04:55.693Z,25.20
2018-03-03T13:07:21.661Z,22.03
2018-03-03T13:09:47.616Z,25.60
2018-03-03T13:12:21.501Z,24.23
2018-03-03T13:14:47.473Z,26.20
2018-03-03T13:17:14.173Z,23.83
2018-03-03T13:19:40.143Z,26.30
2018-03-03T13:22:06.092Z,25.57
2018-03-03T13:24:32.808Z,24.57
2018-03-03T13:26:58.813Z,26.63
2018-03-03T13:29:24.788Z,23.93
2018-03-03T13:31:50.758Z,24.80
2018-03-03T13:34:17.458Z,24.80
2018-03-03T13:36:43.420Z,21.77
2018-03-03T13:39:09.383Z,21.23
2018-03-03T13:41:36.115Z,22.17
2018-03-03T13:44:03.612Z,25.63
2018-03-03T13:46:30.344Z,19.17
2018-03-03T13:48:57.040Z,26.33
2018-03-03T13:51:23.025Z,26.63
2018-03-03T13:53:48.984Z,23.50
2018-03-03T13:56:15.697Z,23.30
2018-03-03T13:58:41.721Z,22.93
2018-03-03T14:01:07.748Z,15.83
2018-03-03T14:03:34.500Z,21.83
2018-03-03T14:06:00.518Z,22.00
2018-03-03T14:08:26.500Z,23.27
2018-03-03T14:10:52.485Z,22.53
2018-03-03T14:13:18.469Z,22.87
2018-03-03T14:15:44.424Z,20.00
2018-03-03T14:18:10.618Z,20.77
2018-03-03T14:20:36.592Z,21.90
2018-03-03T14:23:02.610Z,23.23
2018-03-03T14:25:28.604Z,20.17
2018-03-03T14:27:54.583Z,20.77
2018-03-03T14:30:20.533Z,21.90
2018-03-03T14:32:46.506Z,23.67
2018-03-03T14:35:12.464Z,22.77
2018-03-03T14:37:38.454Z,22.03
2018-03-03T14:40:05.171Z,23.30
2018-03-03T14:42:31.165Z,22.67
2018-03-03T14:44:57.135Z,23.30
2018-03-03T14:47:23.105Z,24.23
2018-03-03T14:49:49.818Z,22.50
2018-03-03T14:52:15.785Z,21.90
2018-03-03T14:54:41.731Z,22.17
2018-03-03T14:57:08.445Z,23.77
2018-03-03T14:59:34.407Z,23.37
2018-03-03T15:02:00.395Z,22.47
2018-03-03T15:04:26.367Z,21.73
2018-03-03T15:06:53.812Z,21.33
2018-03-03T15:09:19.774Z,22.07
2018-03-03T15:11:45.720Z,25.17
2018-03-03T15:14:12.426Z,25.30
2018-03-03T15:16:38.375Z,25.87
2018-03-03T15:19:04.344Z,25.33
2018-03-03T15:21:30.306Z,22.97
2018-03-03T15:23:56.289Z,23.40
2018-03-03T15:26:22.263Z,25.50
2018-03-03T15:28:48.960Z,23.03
2018-03-03T15:31:14.928Z,22.03
2018-03-03T15:33:40.897Z,24.37
2018-03-03T15:36:06.864Z,21.47
2018-03-03T15:38:32.892Z,23.00
2018-03-03T15:40:58.912Z,25.30
2018-03-03T15:43:24.886Z,22.77
2018-03-03T15:45:50.836Z,21.97
2018-03-03T15:48:16.817Z,22.73
2018-03-03T15:50:42.783Z,23.63
2018-03-03T15:53:08.751Z,18.10
2018-03-03T15:55:35.495Z,21.27
2018-03-03T15:58:01.474Z,21.87
2018-03-03T16:00:27.457Z,24.00
2018-03-03T16:02:53.425Z,22.03
2018-03-03T16:05:19.393Z,22.53
2018-03-03T16:07:45.348Z,24.97
2018-03-03T16:10:11.353Z,23.43
2018-03-03T16:12:37.307Z,25.63
2018-03-03T16:15:03.290Z,23.93
2018-03-03T16:17:29.292Z,24.47
2018-03-03T16:19:55.357Z,26.80
2018-03-03T16:22:21.630Z,25.77
2018-03-03T16:24:47.592Z,28.47
2018-03-03T16:27:13.598Z,27.77
2018-03-03T16:29:39.565Z,26.90
2018-03-03T16:32:05.527Z,25.27
2018-03-03T16:34:32.235Z,26.00
2018-03-03T16:36:58.230Z,27.20
2018-03-03T16:39:24.236Z,26.70
2018-03-03T16:41:50.959Z,26.57
2018-03-03T16:44:16.925Z,26.10
2018-03-03T16:46:42.926Z,28.53
2018-03-03T16:49:08.968Z,26.73
2018-03-03T16:51:34.872Z,26.63
2018-03-03T16:54:00.867Z,26.53
2018-03-03T16:56:26.898Z,27.10
2018-03-03T16:58:53.600Z,24.47
2018-03-03T17:01:19.571Z,28.33
2018-03-03T17:03:45.520Z,27.57
2018-03-03T17:06:11.475Z,26.47
2018-03-03T17:08:37.435Z,26.87
2018-03-03T17:11:03.406Z,27.40
2018-03-03T17:13:29.364Z,27.67
2018-03-03T17:15:55.324Z,25.63
2018-03-03T17:18:21.294Z,27.30
2018-03-03T17:20:48.000Z,27.10
2018-03-03T17:23:13.959Z,26.93
2018-03-03T17:25:39.947Z,28.87
2018-03-03T17:28:05.963Z,27.27
2018-03-03T17:30:31.933Z,29.53
2018-03-03T17:32:57.897Z,29.00
2018-03-03T17:35:23.847Z,27.73
2018-03-03T17:37:50.561Z,29.00
2018-03-03T17:40:16.521Z,30.73
2018-03-03T17:42:42.516Z,32.07
2018-03-03T17:45:08.501Z,28.03
2018-03-03T17:47:34.476Z,31.40
2018-03-03T17:50:00.443Z,31.47
2018-03-03T17:52:26.425Z,29.07
2018-03-03T17:54:53.124Z,28.40
2018-03-03T17:57:19.090Z,28.03
2018-03-03T17:59:45.053Z,29.63
2018-03-03T18:02:11.063Z,29.17
2018-03-03T18:04:37.763Z,28.63
2018-03-03T18:07:03.735Z,29.80
2018-03-03T18:09:30.449Z,29.60
2018-03-03T18:11:57.920Z,30.37
2018-03-03T18:14:23.868Z,28.70
2018-03-03T18:16:50.582Z,31.40
2018-03-03T18:19:16.531Z,31.47
2018-03-03T18:21:42.498Z,31.67
2018-03-03T18:24:20.879Z,30.00
2018-03-03T18:26:46.843Z,30.00
2018-03-03T18:29:12.801Z,30.13
2018-03-03T18:31:39.509Z,31.23
2018-03-03T18:34:12.475Z,30.87
2018-03-03T18:36:38.457Z,28.47
2018-03-03T18:39:04.431Z,30.63
2018-03-03T18:41:30.417Z,30.53
2018-03-03T18:43:56.485Z,32.13
2018-03-03T18:46:23.197Z,28.00
2018-03-03T18:48:49.156Z,27.03
2018-03-03T18:51:15.117Z,31.00
2018-03-03T18:53:41.829Z,26.57
2018-03-03T18:56:07.780Z,30.73
2018-03-03T18:58:33.760Z,29.03
2018-03-03T19:00:59.810Z,28.50
2018-03-03T19:03:25.862Z,28.30
2018-03-03T19:05:51.852Z,30.73
2018-03-03T19:08:18.560Z,30.60
2018-03-03T19:10:44.525Z,28.40
2018-03-03T19:13:11.277Z,28.63
2018-03-03T19:15:38.006Z,31.73
2018-03-03T19:18:04.765Z,28.23
2018-03-03T19:20:30.795Z,31.47
2018-03-03T19:22:56.750Z,29.37
2018-03-03T19:25:23.461Z,32.10
2018-03-03T19:27:49.420Z,30.97
2018-03-03T19:30:15.401Z,29.67
2018-03-03T19:32:41.397Z,30.20
2018-03-03T19:35:07.357Z,28.80
2018-03-03T19:37:34.218Z,31.50
2018-03-03T19:40:00.244Z,31.50
2018-03-03T19:42:27.017Z,30.20
2018-03-03T19:44:52.986Z,31.03
2018-03-03T19:47:19.022Z,28.47
2018-03-03T19:49:44.984Z,30.67
2018-03-03T19:52:10.946Z,31.40
2018-03-03T19:54:36.924Z,29.83
2018-03-03T19:57:02.880Z,30.47
2018-03-03T19:59:28.877Z,31.77
2018-03-03T20:01:54.917Z,32.07
2018-03-03T20:04:20.876Z,29.07
2018-03-03T20:06:46.859Z,31.60
2018-03-03T20:09:12.968Z,27.90
2018-03-03T20:11:38.929Z,31.07
2018-03-03T20:14:05.636Z,29.67
2018-03-03T20:16:31.617Z,30.73
2018-03-03T20:18:58.349Z,30.37
2018-03-03T20:21:24.352Z,30.07
2018-03-03T20:23:50.325Z,30.07
2018-03-03T20:26:16.308Z,30.60
2018-03-03T20:28:42.303Z,29.63
2018-03-03T20:31:09.150Z,32.97
2018-03-03T20:33:35.877Z,31.43
2018-03-03T20:36:01.870Z,32.43
2018-03-03T20:38:27.858Z,33.47
2018-03-03T20:40:54.561Z,33.23
2018-03-03T20:43:20.516Z,33.97
2018-03-03T20:45:47.374Z,33.53
2018-03-03T20:48:13.345Z,31.03
2018-03-03T20:50:39.308Z,32.07
2018-03-03T20:53:06.017Z,31.87
2018-03-03T20:55:32.059Z,32.17
2018-03-03T20:57:58.125Z,34.10
2018-03-03T21:00:31.931Z,33.93
2018-03-03T21:02:58.726Z,33.80
2018-03-03T21:05:24.697Z,33.57
2018-03-03T21:07:50.657Z,32.87
2018-03-03T21:10:16.631Z,33.47
2018-03-03T21:12:42.610Z,33.87
2018-03-03T21:15:09.328Z,34.37
2018-03-03T21:17:35.277Z,33.27
2018-03-03T21:20:01.318Z,31.67
2018-03-03T21:22:27.311Z,34.00
2018-03-03T21:24:53.268Z,30.80
2018-03-03T21:27:19.235Z,33.63
2018-03-03T21:29:45.198Z,35.20
2018-03-03T21:32:11.926Z,32.50
2018-03-03T21:34:37.901Z,34.53
2018-03-03T21:37:03.900Z,34.03
2018-03-03T21:39:31.354Z,34.20
2018-03-03T21:41:57.401Z,34.00
2018-03-03T21:44:23.392Z,35.17
2018-03-03T21:46:50.078Z,35.07
2018-03-03T21:49:16.036Z,35.07
2018-03-03T21:51:42.021Z,35.43
2018-03-03T21:54:07.980Z,32.97
2018-03-03T21:56:33.973Z,34.07
2018-03-03T21:59:00.696Z,34.67
2018-03-03T22:01:26.689Z,37.13
2018-03-03T22:03:52.648Z,30.03
2018-03-03T22:06:18.684Z,36.37
2018-03-03T22:08:44.656Z,33.83
2018-03-03T22:11:11.406Z,36.10
2018-03-03T22:13:38.112Z,34.13
2018-03-03T22:16:04.094Z,29.50
2018-03-03T22:18:30.819Z,37.93
2018-03-03T22:20:56.799Z,35.20
2018-03-03T22:23:22.781Z,36.03
2018-03-03T22:25:48.760Z,34.73
2018-03-03T22:28:15.469Z,33.97
2018-03-03T22:30:41.424Z,39.00
2018-03-03T22:33:07.425Z,37.33
2018-03-03T22:35:33.373Z,35.17
2018-03-03T22:37:59.368Z,34.13
2018-03-03T22:40:25.345Z,37.77
2018-03-03T22:42:51.296Z,35.47
2018-03-03T22:45:17.257Z,34.43
2018-03-03T22:47:43.969Z,36.17
2018-03-03T22:50:09.951Z,36.17
2018-03-03T22:52:35.926Z,38.27
2018-03-03T22:55:01.944Z,37.27
2018-03-03T22:57:28.242Z,37.13
2018-03-03T22:59:54.228Z,35.07
2018-03-03T23:02:20.207Z,38.60
2018-03-03T23:04:46.204Z,37.20
2018-03-03T23:07:12.160Z,32.97
2018-03-03T23:09:38.145Z,35.23
2018-03-03T23:12:04.848Z,39.03
2018-03-03T23:14:30.845Z,36.83
2018-03-03T23:16:56.965Z,34.43
2018-03-03T23:19:30.808Z,37.10
2018-03-03T23:21:56.844Z,37.70
2018-03-03T23:24:22.811Z,36.10
2018-03-03T23:26:48.775Z,35.63
2018-03-03T23:29:14.756Z,37.80
2018-03-03T23:31:40.716Z,38.40
2018-03-03T23:34:06.689Z,37.80
2018-03-03T23:36:33.404Z,37.37
2018-03-03T23:38:59.390Z,34.63
2018-03-03T23:41:25.411Z,34.80
2018-03-03T23:43:52.129Z,35.87
2018-03-03T23:46:18.152Z,38.63
2018-03-03T23:48:44.112Z,38.60
2018-03-03T23:51:10.072Z,37.20
2018-03-03T23:53:36.788Z,39.90
2018-03-03T23:56:02.761Z,37.07
2018-03-03T23:58:29.475Z,37.83
